F/V J. Louis Vincent — FQBL — position and weather

sailwx.info

Track history (hours):
 
Tides and Currents Weather Stations Pressure Air Temp Water Temp Dewpoint Dewpoint Depression Visibility Wind Speed Wind Dir Waves Ship Positions

F/V J. Louis Vincent

Last reported at 2017-Jun-27 08:18 UTC. Time now 2017-Jun-27 10:41 UTC.
Position N 38°23' E 010°50'.

Length 29 m; draft 4.5 m.

Type: Tow > 200 m length. MMSI: 227146600.

Date/timePositionNaut miles runAvg speedWind from/ knotsBaromVisibWave heightAir tempDewpointWater temp
2017-Jun-27 08:18N 38°23' E 010°50'0 1.1
2017-Jun-27 07:58N 38°24' E 010°50'19 0.7
2017-Jun-26 04:26N 38°23' E 010°25'0 0.7
2017-Jun-26 03:59N 38°23' E 010°25'0 0.7
2017-Jun-26 03:30N 38°23' E 010°24'0 0.7
2017-Jun-26 03:00N 38°23' E 010°24'6 0.8
2017-Jun-25 19:04N 38°24' E 010°16'5 0.7
2017-Jun-25 12:04N 38°24' E 010°10'0 0.7
2017-Jun-25 12:00N 38°24' E 010°10'0 0.7
2017-Jun-25 11:29N 38°24' E 010°09'0 0.8
2017-Jun-25 11:00N 38°24' E 010°09'2 0.8
2017-Jun-25 08:33N 38°24' E 010°06'0 0.8
2017-Jun-25 08:23N 38°24' E 010°06'2 0.8
2017-Jun-25 06:01N 38°25' E 010°04'0 0.8
2017-Jun-25 05:59N 38°25' E 010°04'0 0.8
2017-Jun-25 05:30N 38°25' E 010°03'0 0.8
2017-Jun-25 04:59N 38°25' E 010°03'0 0.8
2017-Jun-25 04:30N 38°25' E 010°02'0 0.7
2017-Jun-25 03:59N 38°25' E 010°02'0 0.7
2017-Jun-25 03:30N 38°25' E 010°02'0 0.6
2017-Jun-25 03:00N 38°25' E 010°01'0 0.6
2017-Jun-25 02:21N 38°25' E 010°01'1 0.6
2017-Jun-25 01:25N 38°25' E 009°60'0 0.6
2017-Jun-25 00:54N 38°25' E 009°59'0 0.7
2017-Jun-25 00:28N 38°26' E 009°59'0 0.7
2017-Jun-25 00:00N 38°25' E 009°59'1 0.7
2017-Jun-24 23:08N 38°26' E 009°58'0 0.7
2017-Jun-24 22:58N 38°26' E 009°58'0 0.8
2017-Jun-24 22:29N 38°26' E 009°57'0 0.7
2017-Jun-24 21:59N 38°26' E 009°57'3 0.7
2017-Jun-24 18:07N 38°27' E 009°54'0 0.7
2017-Jun-24 17:59N 38°27' E 009°54'0 0.7
2017-Jun-24 17:30N 38°27' E 009°53'0 0.8
2017-Jun-24 17:00N 38°27' E 009°53'0 0.8
2017-Jun-24 16:30N 38°27' E 009°52'0 0.7
2017-Jun-24 16:00N 38°27' E 009°52'0 0.6
2017-Jun-24 15:30N 38°27' E 009°52'0 0.5
2017-Jun-24 15:00N 38°27' E 009°51'1 0.6
2017-Jun-24 14:00N 38°28' E 009°51'0 0.6
2017-Jun-24 13:30N 38°28' E 009°50'0 0.7
2017-Jun-24 13:00N 38°28' E 009°50'0 0.7
2017-Jun-24 12:29N 38°28' E 009°49'0 0.7
2017-Jun-24 12:00N 38°28' E 009°49'0 0.6
2017-Jun-24 11:30N 38°28' E 009°49'0 0.6
2017-Jun-24 11:00N 38°28' E 009°48'2 0.6
2017-Jun-24 07:56N 38°29' E 009°46'1 0.7
2017-Jun-24 06:46N 38°29' E 009°45'0 0.7
2017-Jun-24 06:30N 38°29' E 009°45'0 0.6
2017-Jun-24 06:00N 38°29' E 009°44'0 0.6
2017-Jun-24 05:30N 38°29' E 009°44'0 0.6
2017-Jun-24 04:59N 38°29' E 009°43'1 0.6
2017-Jun-24 03:52N 38°29' E 009°43'0 0.6
2017-Jun-24 03:29N 38°29' E 009°42'0 0.6
2017-Jun-24 03:00N 38°29' E 009°42'0 0.6
2017-Jun-24 02:29N 38°29' E 009°42'0 0.5
2017-Jun-24 02:00N 38°29' E 009°41'0 0.5
2017-Jun-24 01:29N 38°29' E 009°41'0 0.6
2017-Jun-24 00:59N 38°29' E 009°41'0 0.6
2017-Jun-24 00:29N 38°29' E 009°40'0 0.6
2017-Jun-24 00:00N 38°29' E 009°40'3 0.6
2017-Jun-23 18:59N 38°31' E 009°36'0 0.7
2017-Jun-23 18:22N 38°31' E 009°36'0 0.7
2017-Jun-23 17:58N 38°31' E 009°35'0 0.7
2017-Jun-23 17:15N 38°31' E 009°35'0 0.7
2017-Jun-23 17:00N 38°31' E 009°35'0 0.8
2017-Jun-23 16:30N 38°31' E 009°34'0 0.8
2017-Jun-23 16:00N 38°31' E 009°34'0 0.6
2017-Jun-23 15:30N 38°31' E 009°33'0 0.6
2017-Jun-23 15:00N 38°31' E 009°33'1 0.7
2017-Jun-23 14:00N 38°31' E 009°32'0 0.7
2017-Jun-23 13:30N 38°31' E 009°32'0 0.7
2017-Jun-23 13:00N 38°32' E 009°31'0 0.8
2017-Jun-23 12:29N 38°32' E 009°31'0 0.8
2017-Jun-23 11:59N 38°32' E 009°30'0 0.8
2017-Jun-23 11:30N 38°32' E 009°30'0 0.8
2017-Jun-23 10:57N 38°32' E 009°29'0 0.8
2017-Jun-23 10:29N 38°32' E 009°29'0 0.7
2017-Jun-23 09:58N 38°32' E 009°28'0 0.7
2017-Jun-23 09:30N 38°32' E 009°28'0 0.6
2017-Jun-23 09:00N 38°32' E 009°28'0 0.6
2017-Jun-23 08:20N 38°33' E 009°27'0 0.6
2017-Jun-23 07:55N 38°33' E 009°27'0 0.5
2017-Jun-23 07:18N 38°33' E 009°26'0 0.5
2017-Jun-23 06:44N 38°33' E 009°26'0 0.5
2017-Jun-23 06:30N 38°33' E 009°26'0 0.6
2017-Jun-23 06:00N 38°33' E 009°26'0 0.7
2017-Jun-23 05:25N 38°33' E 009°25'0 0.8
2017-Jun-23 05:00N 38°33' E 009°25'0 0.8
2017-Jun-23 04:30N 38°33' E 009°24'0 0.7
2017-Jun-23 03:59N 38°33' E 009°24'0 0.7
2017-Jun-23 03:30N 38°33' E 009°23'0 0.7
2017-Jun-23 02:59N 38°33' E 009°23'0 0.8
2017-Jun-23 02:26N 38°33' E 009°22'0 0.5
2017-Jun-23 01:52N 38°33' E 009°22'0 0.5
2017-Jun-23 01:29N 38°33' E 009°22'0 0.6
2017-Jun-23 01:00N 38°33' E 009°21'0 0.6
2017-Jun-23 00:30N 38°33' E 009°21'0 0.6
2017-Jun-23 00:00N 38°33' E 009°21'0 0.6
2017-Jun-22 23:29N 38°33' E 009°20'0 0.6
2017-Jun-22 22:45N 38°33' E 009°20'0 0.6
2017-Jun-22 22:30N 38°33' E 009°20'0 0.7
2017-Jun-22 22:00N 38°34' E 009°19'0 0.7
2017-Jun-22 21:29N 38°34' E 009°19'1 0.7
2017-Jun-22 20:13N 38°34' E 009°18'0 0.8
2017-Jun-22 19:55N 38°34' E 009°17'0 0.9
2017-Jun-22 19:30N 38°34' E 009°17'1 0.9
2017-Jun-22 18:56N 38°34' E 009°16'0 0.9
2017-Jun-22 18:30N 38°34' E 009°16'0 0.8
2017-Jun-22 18:00N 38°34' E 009°16'0 0.8
2017-Jun-22 17:29N 38°35' E 009°15'0 0.8
2017-Jun-22 17:00N 38°35' E 009°15'0 0.7
2017-Jun-22 16:23N 38°35' E 009°14'0 0.6
2017-Jun-22 16:00N 38°35' E 009°14'0 0.6
2017-Jun-22 15:30N 38°35' E 009°13'1 0.7
2017-Jun-22 14:45N 38°35' E 009°13'1 0.6
2017-Jun-22 13:47N 38°35' E 009°12'0 0.7
2017-Jun-22 13:28N 38°35' E 009°12'0 0.7
2017-Jun-22 12:59N 38°35' E 009°11'20 0.6
2017-Jun-21 01:20N 38°39' E 008°46'1 0.4
2017-Jun-20 21:52N 38°40' E 008°45'0 0.5
2017-Jun-20 21:30N 38°40' E 008°44'0 0.6
2017-Jun-20 20:40N 38°40' E 008°44'0 0.6
2017-Jun-20 20:25N 38°40' E 008°44'0 0.6
2017-Jun-20 20:00N 38°40' E 008°43'0 0.5
2017-Jun-20 19:30N 38°40' E 008°43'1 0.7
2017-Jun-20 18:33N 38°40' E 008°42'  
Track history (hours):
 
Tides and Currents Weather Stations Pressure Air Temp Water Temp Dewpoint Dewpoint Depression Visibility Wind Speed Wind Dir Waves Ship Positions

F/V J. Louis Vincent

Last reported at 2017-Jun-27 08:18 UTC. Time now 2017-Jun-27 10:41 UTC.
Position N 38°23' E 010°50'.

Length 29 m; draft 4.5 m.

Type: Tow > 200 m length. MMSI: 227146600.

Date/timePositionNaut miles runAvg speedWind from/ knotsBaromVisibWave heightAir tempDewpointWater temp
2017-Jun-27 08:18N 38°23' E 010°50'0 1.1
2017-Jun-27 07:58N 38°24' E 010°50'19 0.7
2017-Jun-26 04:26N 38°23' E 010°25'0 0.7
2017-Jun-26 03:59N 38°23' E 010°25'0 0.7
2017-Jun-26 03:30N 38°23' E 010°24'0 0.7
2017-Jun-26 03:00N 38°23' E 010°24'6 0.8
2017-Jun-25 19:04N 38°24' E 010°16'5 0.7
2017-Jun-25 12:04N 38°24' E 010°10'0 0.7
2017-Jun-25 12:00N 38°24' E 010°10'0 0.7
2017-Jun-25 11:29N 38°24' E 010°09'0 0.8
2017-Jun-25 11:00N 38°24' E 010°09'2 0.8
2017-Jun-25 08:33N 38°24' E 010°06'0 0.8
2017-Jun-25 08:23N 38°24' E 010°06'2 0.8
2017-Jun-25 06:01N 38°25' E 010°04'0 0.8
2017-Jun-25 05:59N 38°25' E 010°04'0 0.8
2017-Jun-25 05:30N 38°25' E 010°03'0 0.8
2017-Jun-25 04:59N 38°25' E 010°03'0 0.8
2017-Jun-25 04:30N 38°25' E 010°02'0 0.7
2017-Jun-25 03:59N 38°25' E 010°02'0 0.7
2017-Jun-25 03:30N 38°25' E 010°02'0 0.6
2017-Jun-25 03:00N 38°25' E 010°01'0 0.6
2017-Jun-25 02:21N 38°25' E 010°01'1 0.6
2017-Jun-25 01:25N 38°25' E 009°60'0 0.6
2017-Jun-25 00:54N 38°25' E 009°59'0 0.7
2017-Jun-25 00:28N 38°26' E 009°59'0 0.7
2017-Jun-25 00:00N 38°25' E 009°59'1 0.7
2017-Jun-24 23:08N 38°26' E 009°58'0 0.7
2017-Jun-24 22:58N 38°26' E 009°58'0 0.8
2017-Jun-24 22:29N 38°26' E 009°57'0 0.7
2017-Jun-24 21:59N 38°26' E 009°57'3 0.7
2017-Jun-24 18:07N 38°27' E 009°54'0 0.7
2017-Jun-24 17:59N 38°27' E 009°54'0 0.7
2017-Jun-24 17:30N 38°27' E 009°53'0 0.8
2017-Jun-24 17:00N 38°27' E 009°53'0 0.8
2017-Jun-24 16:30N 38°27' E 009°52'0 0.7
2017-Jun-24 16:00N 38°27' E 009°52'0 0.6
2017-Jun-24 15:30N 38°27' E 009°52'0 0.5
2017-Jun-24 15:00N 38°27' E 009°51'1 0.6
2017-Jun-24 14:00N 38°28' E 009°51'0 0.6
2017-Jun-24 13:30N 38°28' E 009°50'0 0.7
2017-Jun-24 13:00N 38°28' E 009°50'0 0.7
2017-Jun-24 12:29N 38°28' E 009°49'0 0.7
2017-Jun-24 12:00N 38°28' E 009°49'0 0.6
2017-Jun-24 11:30N 38°28' E 009°49'0 0.6
2017-Jun-24 11:00N 38°28' E 009°48'2 0.6
2017-Jun-24 07:56N 38°29' E 009°46'1 0.7
2017-Jun-24 06:46N 38°29' E 009°45'0 0.7
2017-Jun-24 06:30N 38°29' E 009°45'0 0.6
2017-Jun-24 06:00N 38°29' E 009°44'0 0.6
2017-Jun-24 05:30N 38°29' E 009°44'0 0.6
2017-Jun-24 04:59N 38°29' E 009°43'1 0.6
2017-Jun-24 03:52N 38°29' E 009°43'0 0.6
2017-Jun-24 03:29N 38°29' E 009°42'0 0.6
2017-Jun-24 03:00N 38°29' E 009°42'0 0.6
2017-Jun-24 02:29N 38°29' E 009°42'0 0.5
2017-Jun-24 02:00N 38°29' E 009°41'0 0.5
2017-Jun-24 01:29N 38°29' E 009°41'0 0.6
2017-Jun-24 00:59N 38°29' E 009°41'0 0.6
2017-Jun-24 00:29N 38°29' E 009°40'0 0.6
2017-Jun-24 00:00N 38°29' E 009°40'3 0.6
2017-Jun-23 18:59N 38°31' E 009°36'0 0.7
2017-Jun-23 18:22N 38°31' E 009°36'0 0.7
2017-Jun-23 17:58N 38°31' E 009°35'0 0.7
2017-Jun-23 17:15N 38°31' E 009°35'0 0.7
2017-Jun-23 17:00N 38°31' E 009°35'0 0.8
2017-Jun-23 16:30N 38°31' E 009°34'0 0.8
2017-Jun-23 16:00N 38°31' E 009°34'0 0.6
2017-Jun-23 15:30N 38°31' E 009°33'0 0.6
2017-Jun-23 15:00N 38°31' E 009°33'1 0.7
2017-Jun-23 14:00N 38°31' E 009°32'0 0.7
2017-Jun-23 13:30N 38°31' E 009°32'0 0.7
2017-Jun-23 13:00N 38°32' E 009°31'0 0.8
2017-Jun-23 12:29N 38°32' E 009°31'0 0.8
2017-Jun-23 11:59N 38°32' E 009°30'0 0.8
2017-Jun-23 11:30N 38°32' E 009°30'0 0.8
2017-Jun-23 10:57N 38°32' E 009°29'0 0.8
2017-Jun-23 10:29N 38°32' E 009°29'0 0.7
2017-Jun-23 09:58N 38°32' E 009°28'0 0.7
2017-Jun-23 09:30N 38°32' E 009°28'0 0.6
2017-Jun-23 09:00N 38°32' E 009°28'0 0.6
2017-Jun-23 08:20N 38°33' E 009°27'0 0.6
2017-Jun-23 07:55N 38°33' E 009°27'0 0.5
2017-Jun-23 07:18N 38°33' E 009°26'0 0.5
2017-Jun-23 06:44N 38°33' E 009°26'0 0.5
2017-Jun-23 06:30N 38°33' E 009°26'0 0.6
2017-Jun-23 06:00N 38°33' E 009°26'0 0.7
2017-Jun-23 05:25N 38°33' E 009°25'0 0.8
2017-Jun-23 05:00N 38°33' E 009°25'0 0.8
2017-Jun-23 04:30N 38°33' E 009°24'0 0.7
2017-Jun-23 03:59N 38°33' E 009°24'0 0.7
2017-Jun-23 03:30N 38°33' E 009°23'0 0.7
2017-Jun-23 02:59N 38°33' E 009°23'0 0.8
2017-Jun-23 02:26N 38°33' E 009°22'0 0.5
2017-Jun-23 01:52N 38°33' E 009°22'0 0.5
2017-Jun-23 01:29N 38°33' E 009°22'0 0.6
2017-Jun-23 01:00N 38°33' E 009°21'0 0.6
2017-Jun-23 00:30N 38°33' E 009°21'0 0.6
2017-Jun-23 00:00N 38°33' E 009°21'0 0.6
2017-Jun-22 23:29N 38°33' E 009°20'0 0.6
2017-Jun-22 22:45N 38°33' E 009°20'0 0.6
2017-Jun-22 22:30N 38°33' E 009°20'0 0.7
2017-Jun-22 22:00N 38°34' E 009°19'0 0.7
2017-Jun-22 21:29N 38°34' E 009°19'1 0.7
2017-Jun-22 20:13N 38°34' E 009°18'0 0.8
2017-Jun-22 19:55N 38°34' E 009°17'0 0.9
2017-Jun-22 19:30N 38°34' E 009°17'1 0.9
2017-Jun-22 18:56N 38°34' E 009°16'0 0.9
2017-Jun-22 18:30N 38°34' E 009°16'0 0.8
2017-Jun-22 18:00N 38°34' E 009°16'0 0.8
2017-Jun-22 17:29N 38°35' E 009°15'0 0.8
2017-Jun-22 17:00N 38°35' E 009°15'0 0.7
2017-Jun-22 16:23N 38°35' E 009°14'0 0.6
2017-Jun-22 16:00N 38°35' E 009°14'0 0.6
2017-Jun-22 15:30N 38°35' E 009°13'1 0.7
2017-Jun-22 14:45N 38°35' E 009°13'1 0.6
2017-Jun-22 13:47N 38°35' E 009°12'0 0.7
2017-Jun-22 13:28N 38°35' E 009°12'0 0.7
2017-Jun-22 12:59N 38°35' E 009°11'20 0.6
2017-Jun-21 01:20N 38°39' E 008°46'1 0.4
2017-Jun-20 21:52N 38°40' E 008°45'0 0.5
2017-Jun-20 21:30N 38°40' E 008°44'0 0.6
2017-Jun-20 20:40N 38°40' E 008°44'0 0.6
2017-Jun-20 20:25N 38°40' E 008°44'0 0.6
2017-Jun-20 20:00N 38°40' E 008°43'0 0.5
2017-Jun-20 19:30N 38°40' E 008°43'1 0.7
2017-Jun-20 18:33N 38°40' E 008°42'  

Dump ship's entire track history